Time;durP1;ratioP1;P1;durP2;ratioP2;P2;SDS_P1;SDS_P2;PMS_P1;PMS_P2;Temp;Humidity;BMP_temperature;BMP_pressure;BME280_temperature;BME280_humidity;BME280_pressure;Samples;Min_cycle;Max_cycle;Signal;HPM_P1;HPM_P2
2022/09/02 00:02:30;;;;;;;6.33;2.87;;;23.50;44.90;;;;;;5078963;28;20199;-96
2022/09/02 00:04:58;;;;;;;5.27;2.40;;;23.50;45.40;;;;;;5055603;28;20287;-96
2022/09/02 00:07:26;;;;;;;4.90;2.30;;;23.40;45.10;;;;;;5055613;28;20207;-96
2022/09/02 00:10:09;;;;;;;7.20;3.03;;;23.40;45.30;;;;;;5057496;28;20334;-96
2022/09/02 00:15:19;;;;;;;9.70;3.87;;;23.40;45.50;;;;;;5040061;28;20208;-96
2022/09/02 00:17:55;;;;;;;7.37;3.07;;;23.30;45.60;;;;;;5060870;28;20263;-96
2022/09/02 00:20:23;;;;;;;5.90;2.70;;;23.30;46.20;;;;;;5054841;28;20202;-96
2022/09/02 00:22:51;;;;;;;5.33;2.53;;;23.20;45.90;;;;;;5048158;22;20322;-96
2022/09/02 00:25:22;;;;;;;6.47;3.13;;;23.20;45.90;;;;;;5075373;28;20237;-96
2022/09/02 00:28:11;;;;;;;10.67;4.07;;;23.10;46.10;;;;;;5073930;28;20908;-95
2022/09/02 00:31:15;;;;;;;4.90;2.37;;;23.20;46.70;;;;;;5067267;28;20235;-96
2022/09/02 00:33:57;;;;;;;4.97;2.40;;;23.10;46.70;;;;;;5071816;28;20206;-95
2022/09/02 00:36:27;;;;;;;8.03;3.17;;;23.10;46.70;;;;;;5076008;28;20222;-96
2022/09/02 00:38:56;;;;;;;8.87;2.87;;;23.10;46.50;;;;;;5077423;28;20211;-96
2022/09/02 00:41:31;;;;;;;7.40;3.03;;;23.00;46.40;;;;;;5079294;28;20206;-96
2022/09/02 00:44:04;;;;;;;5.67;2.40;;;23.00;46.80;;;;;;5079231;28;20295;-96
2022/09/02 00:49:23;;;;;;;7.33;3.07;;;22.90;46.70;;;;;;5075020;28;20210;-96
2022/09/02 00:51:56;;;;;;;11.27;3.30;;;22.90;47.10;;;;;;5075701;28;20201;-96
2022/09/02 00:54:27;;;;;;;4.27;2.17;;;22.90;47.10;;;;;;5078497;28;20199;-96
2022/09/02 00:57:04;;;;;;;10.00;4.03;;;22.80;46.90;;;;;;5075576;28;20215;-93
2022/09/02 00:59:44;;;;;;;5.90;2.63;;;22.80;47.00;;;;;;5074801;28;20199;-96
2022/09/02 01:02:36;;;;;;;6.83;3.00;;;22.70;47.30;;;;;;5071587;28;20601;-96
2022/09/02 01:05:08;;;;;;;7.80;3.37;;;22.70;47.30;;;;;;5066079;28;20234;-96
2022/09/02 01:07:37;;;;;;;13.07;4.67;;;22.70;47.20;;;;;;5070750;28;20272;-96
2022/09/02 01:10:07;;;;;;;14.40;5.40;;;22.70;47.20;;;;;;5070714;28;20245;-96
2022/09/02 01:12:36;;;;;;;17.90;5.70;;;22.70;47.30;;;;;;5084988;28;20185;-96
2022/09/02 01:15:06;;;;;;;11.10;4.60;;;22.60;47.30;;;;;;5092261;28;20211;-96
2022/09/02 01:17:33;;;;;;;7.87;3.47;;;22.60;47.30;;;;;;5092240;28;20258;-96
2022/09/02 01:20:42;;;;;;;8.77;3.50;;;22.60;47.30;;;;;;5100160;22;20254;-96
2022/09/02 01:23:18;;;;;;;4.07;1.93;;;22.60;47.50;;;;;;5066274;28;20202;-96
2022/09/02 01:25:46;;;;;;;4.90;2.30;;;22.50;47.60;;;;;;5058983;28;20283;-96
2022/09/02 01:28:26;;;;;;;8.87;3.37;;;22.50;47.30;;;;;;5057829;28;20200;-96
2022/09/02 01:30:55;;;;;;;6.53;3.20;;;22.40;47.70;;;;;;5059653;28;20640;-96
2022/09/02 01:33:23;;;;;;;5.20;2.50;;;22.40;47.40;;;;;;5050025;28;20204;-96
2022/09/02 01:35:52;;;;;;;10.67;3.50;;;22.40;47.50;;;;;;5040242;28;20224;-96
2022/09/02 01:38:32;;;;;;;12.07;4.00;;;22.30;48.00;;;;;;5051525;28;20207;-96
2022/09/02 01:41:00;;;;;;;11.60;4.60;;;22.40;48.00;;;;;;5069231;28;20226;-96
2022/09/02 01:43:28;;;;;;;10.13;4.07;;;22.30;47.50;;;;;;5067019;28;20198;-96
2022/09/02 01:45:58;;;;;;;8.63;3.57;;;22.30;47.70;;;;;;5065774;28;20260;-96
2022/09/02 01:48:31;;;;;;;5.30;2.57;;;22.30;47.80;;;;;;5055850;28;20287;-96
2022/09/02 01:51:03;;;;;;;6.83;2.97;;;22.20;48.00;;;;;;5056870;28;20207;-96
2022/09/02 01:53:44;;;;;;;4.53;2.67;;;22.20;48.00;;;;;;5052757;28;20201;-96
2022/09/02 01:56:13;;;;;;;3.43;2.20;;;22.20;48.40;;;;;;5042717;28;20205;-96
2022/09/02 01:58:44;;;;;;;5.87;2.90;;;22.10;47.80;;;;;;5056930;28;20211;-96
2022/09/02 02:01:13;;;;;;;10.27;3.77;;;22.10;48.00;;;;;;5062701;28;20659;-96
2022/09/02 02:03:40;;;;;;;7.17;3.20;;;22.00;47.90;;;;;;5059692;28;20618;-96
2022/09/02 02:06:23;;;;;;;8.77;3.87;;;22.00;47.90;;;;;;5060767;28;20302;-96
2022/09/02 02:08:52;;;;;;;9.23;3.87;;;22.00;48.30;;;;;;5042702;28;20638;-96
2022/09/02 02:11:20;;;;;;;7.03;3.37;;;22.00;48.20;;;;;;5040798;28;20215;-96
2022/09/02 02:13:50;;;;;;;8.20;3.70;;;21.90;48.20;;;;;;5050816;28;20642;-96
2022/09/02 02:16:19;;;;;;;7.50;3.53;;;21.90;48.20;;;;;;5053701;28;20766;-94
2022/09/02 02:21:45;;;;;;;5.53;2.83;;;21.90;48.20;;;;;;5131831;22;20239;-96
2022/09/02 02:24:22;;;;;;;4.27;2.50;;;21.80;48.50;;;;;;5061087;28;20200;-96
2022/09/02 02:26:51;;;;;;;6.27;3.13;;;21.80;48.50;;;;;;5062209;28;20200;-96
2022/09/02 02:29:19;;;;;;;9.80;3.40;;;21.70;48.10;;;;;;5063520;28;20196;-96
2022/09/02 02:31:51;;;;;;;10.23;3.67;;;21.70;48.30;;;;;;5059963;28;20210;-96
2022/09/02 02:34:20;;;;;;;10.97;4.77;;;21.70;48.30;;;;;;5058056;28;20230;-96
2022/09/02 02:36:48;;;;;;;10.70;3.90;;;21.60;48.40;;;;;;5071368;28;20248;-95
2022/09/02 02:39:18;;;;;;;9.03;4.23;;;21.60;48.30;;;;;;5073302;28;20233;-96
2022/09/02 02:41:47;;;;;;;4.17;2.57;;;21.50;48.30;;;;;;5061828;28;20346;-96
2022/09/02 02:44:49;;;;;;;8.30;3.43;;;21.50;48.50;;;;;;5060924;28;20649;-95
2022/09/02 02:47:18;;;;;;;6.00;3.20;;;21.50;48.80;;;;;;5032915;28;20239;-96
2022/09/02 02:49:45;;;;;;;6.93;3.33;;;21.50;48.40;;;;;;5060870;28;20203;-96
2022/09/02 02:52:14;;;;;;;9.30;4.07;;;21.40;48.40;;;;;;5075987;22;20799;-95
2022/09/02 02:54:48;;;;;;;11.17;3.70;;;21.40;48.50;;;;;;5059190;28;20243;-96
2022/09/02 02:57:22;;;;;;;6.70;3.53;;;21.40;48.70;;;;;;5058940;28;20250;-95
2022/09/02 03:02:44;;;;;;;4.53;2.60;;;21.30;49.30;;;;;;5063743;22;20237;-96
2022/09/02 03:05:17;;;;;;;6.00;3.13;;;21.30;48.80;;;;;;5057365;28;20253;-96
2022/09/02 03:07:46;;;;;;;8.50;3.97;;;21.30;49.20;;;;;;5039489;28;20719;-96
2022/09/02 03:10:14;;;;;;;8.93;3.50;;;21.20;49.10;;;;;;5040222;28;20258;-96
2022/09/02 03:13:08;;;;;;;8.13;3.60;;;21.20;49.10;;;;;;5039795;28;20232;-96
2022/09/02 03:15:39;;;;;;;7.67;3.47;;;21.20;49.60;;;;;;5049649;28;20211;-95
2022/09/02 03:18:08;;;;;;;7.93;3.97;;;21.10;49.30;;;;;;5061230;28;20219;-95
2022/09/02 03:20:37;;;;;;;7.13;3.73;;;21.10;49.30;;;;;;5043074;28;20238;-96
2022/09/02 03:23:11;;;;;;;7.33;3.53;;;21.10;49.40;;;;;;5060229;28;20211;-95
2022/09/02 03:25:43;;;;;;;6.30;3.50;;;21.00;49.70;;;;;;5041853;28;20204;-96
2022/09/02 03:28:12;;;;;;;11.37;4.70;;;21.00;49.70;;;;;;5043630;28;20204;-95
2022/09/02 03:30:57;;;;;;;7.30;3.63;;;21.00;49.70;;;;;;5066319;28;20257;-95
2022/09/02 03:33:24;;;;;;;9.17;4.40;;;21.00;49.80;;;;;;5090612;22;20234;-96
2022/09/02 03:35:59;;;;;;;10.63;4.00;;;20.90;49.70;;;;;;5110280;22;20191;-96
2022/09/02 03:44:49;;;;;;;8.97;3.77;;;20.80;50.00;;;;;;5102942;22;20241;-96
2022/09/02 03:47:33;;;;;;;5.87;3.57;;;20.80;50.20;;;;;;5070125;28;20204;-96
2022/09/02 03:52:56;;;;;;;6.10;3.67;;;20.80;50.20;;;;;;5071061;28;20208;-96
2022/09/02 03:55:37;;;;;;;12.20;5.30;;;20.70;50.10;;;;;;5070464;28;20245;-96
2022/09/02 03:58:05;;;;;;;7.50;3.97;;;20.70;50.10;;;;;;5064161;28;20231;-95
2022/09/02 04:00:37;;;;;;;13.33;5.17;;;20.70;49.90;;;;;;5065647;28;20206;-96
2022/09/02 04:06:05;;;;;;;12.10;4.07;;;20.70;50.00;;;;;;5032849;28;20225;-96
2022/09/02 04:08:35;;;;;;;9.17;4.10;;;20.60;50.20;;;;;;5063342;28;20215;-96
2022/09/02 04:11:07;;;;;;;11.20;3.90;;;20.60;50.20;;;;;;5066628;28;20200;-96
2022/09/02 04:13:41;;;;;;;8.27;4.00;;;20.60;50.40;;;;;;5063556;28;20653;-96
2022/09/02 04:16:19;;;;;;;10.07;4.23;;;20.60;50.50;;;;;;5063436;28;20379;-96
2022/09/02 04:18:48;;;;;;;12.33;5.33;;;20.50;50.50;;;;;;5064364;28;20207;-96
2022/09/02 04:21:18;;;;;;;10.53;5.17;;;20.50;50.30;;;;;;5063243;28;20222;-95
2022/09/02 04:23:49;;;;;;;12.97;5.83;;;20.50;50.40;;;;;;5055865;28;20216;-95
2022/09/02 04:26:45;;;;;;;11.37;4.77;;;20.40;50.50;;;;;;5062169;28;20921;-95
2022/09/02 04:29:18;;;;;;;7.40;3.90;;;20.40;50.90;;;;;;5056253;28;20203;-96
2022/09/02 04:31:47;;;;;;;11.37;4.77;;;20.40;50.60;;;;;;5059349;28;20201;-96
2022/09/02 04:34:15;;;;;;;29.87;11.90;;;20.40;50.60;;;;;;5053925;22;20209;-96
2022/09/02 04:36:42;;;;;;;8.17;4.60;;;20.30;50.50;;;;;;5062160;28;20211;-96
2022/09/02 04:39:12;;;;;;;7.33;4.10;;;20.30;50.70;;;;;;5045152;28;20201;-96
2022/09/02 04:44:56;;;;;;;7.67;4.03;;;20.30;51.20;;;;;;5042127;28;20205;-96
2022/09/02 04:47:36;;;;;;;11.40;4.70;;;20.20;50.80;;;;;;5076237;22;20297;-96
2022/09/02 04:50:09;;;;;;;11.70;4.73;;;20.20;51.20;;;;;;5079167;28;20214;-96
2022/09/02 04:52:42;;;;;;;13.33;6.47;;;20.20;51.10;;;;;;5082279;28;20268;-96
2022/09/02 04:55:11;;;;;;;11.57;5.27;;;20.10;51.00;;;;;;5081036;28;20550;-95
2022/09/02 04:57:38;;;;;;;10.03;4.37;;;20.10;51.00;;;;;;5076143;28;20224;-96
2022/09/02 05:00:09;;;;;;;13.27;5.90;;;20.10;51.10;;;;;;5063523;28;20200;-94
2022/09/02 05:03:04;;;;;;;12.80;5.10;;;20.10;51.30;;;;;;5076224;28;20223;-94
2022/09/02 05:05:59;;;;;;;5.57;3.33;;;20.10;51.30;;;;;;5075510;28;20186;-94
2022/09/02 05:11:19;;;;;;;5.43;3.37;;;20.00;51.80;;;;;;5073346;28;20216;-96
2022/09/02 05:16:41;;;;;;;8.47;4.57;;;19.90;51.30;;;;;;5067737;28;20199;-96
2022/09/02 05:25:59;;;;;;;9.33;4.53;;;19.90;51.50;;;;;;5080078;28;20212;-95
2022/09/02 05:28:40;;;;;;;6.23;4.37;;;19.90;52.10;;;;;;5067424;28;20214;-94
2022/09/02 05:31:18;;;;;;;16.93;5.87;;;19.90;52.00;;;;;;5063944;28;20251;-96
2022/09/02 05:33:53;;;;;;;8.13;5.07;;;19.80;52.00;;;;;;5061261;28;20195;-96
2022/09/02 05:36:24;;;;;;;11.60;5.10;;;19.80;52.20;;;;;;5061948;28;20230;-93
2022/09/02 05:38:59;;;;;;;10.20;5.43;;;19.80;52.20;;;;;;5064192;28;20228;-94
2022/09/02 05:42:15;;;;;;;10.87;5.23;;;19.80;52.40;;;;;;5064748;28;20206;-96
2022/09/02 05:44:44;;;;;;;7.57;4.60;;;19.70;52.40;;;;;;5071901;28;20211;-96
2022/09/02 05:47:20;;;;;;;10.43;5.07;;;19.70;52.00;;;;;;5086437;28;20297;-96
2022/09/02 05:49:54;;;;;;;8.23;4.83;;;19.70;52.40;;;;;;5086623;28;20209;-96
2022/09/02 05:52:29;;;;;;;11.13;5.43;;;19.70;52.40;;;;;;5084712;28;20234;-96
2022/09/02 05:54:59;;;;;;;11.50;5.03;;;19.70;52.40;;;;;;5076915;28;20662;-96
2022/09/02 05:57:33;;;;;;;7.30;4.10;;;19.70;52.40;;;;;;5077015;28;20219;-96
2022/09/02 06:00:01;;;;;;;10.60;5.50;;;19.70;52.60;;;;;;5059262;28;20224;-96
2022/09/02 06:02:43;;;;;;;10.70;5.40;;;19.70;52.40;;;;;;5044166;28;20206;-96
2022/09/02 06:05:13;;;;;;;10.00;5.57;;;19.70;52.80;;;;;;5058833;28;20218;-96
2022/09/02 06:07:42;;;;;;;14.83;7.03;;;19.70;52.40;;;;;;5060719;28;20250;-95
2022/09/02 06:10:09;;;;;;;19.03;6.73;;;19.70;52.60;;;;;;5057733;28;20250;-96
2022/09/02 06:12:37;;;;;;;9.90;5.13;;;19.60;52.40;;;;;;5060815;28;20208;-96
2022/09/02 06:15:26;;;;;;;11.20;5.47;;;19.70;52.60;;;;;;5055278;28;20276;-94
2022/09/02 06:17:58;;;;;;;10.20;5.07;;;19.70;52.90;;;;;;5071462;28;20293;-96
2022/09/02 06:20:31;;;;;;;10.33;6.10;;;19.70;52.80;;;;;;5074339;28;20196;-96
2022/09/02 06:23:27;;;;;;;7.97;5.73;;;19.70;52.90;;;;;;5075843;28;20207;-96
2022/09/02 06:26:01;;;;;;;12.20;6.47;;;19.70;53.60;;;;;;5075705;28;20215;-96
2022/09/02 06:38:42;;;;;;;9.70;5.97;;;19.70;53.50;;;;;;5075286;28;20214;-94
2022/09/02 06:48:17;;;;;;;20.33;6.50;;;19.80;53.60;;;;;;5256004;22;20216;-94
2022/09/02 06:51:01;;;;;;;15.23;6.20;;;19.80;53.20;;;;;;5032536;28;20202;-95
2022/09/02 06:53:32;;;;;;;11.87;6.57;;;19.90;53.30;;;;;;5035403;28;20259;-96
2022/09/02 06:56:17;;;;;;;13.83;5.97;;;19.90;53.30;;;;;;5036443;28;20197;-95
2022/09/02 07:02:19;;;;;;;7.03;5.53;;;20.00;53.40;;;;;;5034510;28;20188;-96
2022/09/02 07:05:09;;;;;;;16.27;7.00;;;20.10;53.20;;;;;;5051054;28;20196;-96
2022/09/02 07:07:51;;;;;;;12.57;6.10;;;20.10;53.50;;;;;;5051633;28;20209;-96
2022/09/02 07:10:39;;;;;;;14.70;8.43;;;20.20;53.30;;;;;;5049162;28;20276;-96
2022/09/02 07:13:23;;;;;;;17.03;8.70;;;20.30;54.20;;;;;;5054970;28;20224;-94
2022/09/02 07:16:35;;;;;;;11.53;6.17;;;20.30;54.20;;;;;;5056246;28;20264;-95
2022/09/02 07:19:04;;;;;;;12.00;6.67;;;20.40;53.70;;;;;;5039793;28;20251;-96
2022/09/02 07:35:11;;;;;;;11.50;5.37;;;20.50;53.50;;;;;;5361742;22;21050328;-94
2022/09/02 07:40:38;;;;;;;14.70;7.07;;;21.00;53.60;;;;;;6234264;23;20172;-95
2022/09/02 07:43:10;;;;;;;19.03;9.67;;;21.10;53.50;;;;;;6244798;22;20202;-96
2022/09/02 07:48:05;;;;;;;10.57;6.20;;;21.20;53.70;;;;;;6277712;22;20663;-96
2022/09/02 07:50:39;;;;;;;13.73;7.50;;;21.30;53.70;;;;;;6267732;23;20187;-96
2022/09/02 07:53:16;;;;;;;10.23;7.13;;;21.40;53.80;;;;;;6275069;22;20160;-96
2022/09/02 07:56:06;;;;;;;17.17;7.93;;;21.50;53.90;;;;;;6276074;23;20175;-95
2022/09/02 07:58:41;;;;;;;11.17;7.33;;;21.50;54.20;;;;;;6264294;22;20574;-95
2022/09/02 08:01:15;;;;;;;13.30;7.13;;;21.60;54.10;;;;;;6269632;23;20603;-95
2022/09/02 08:03:45;;;;;;;14.47;7.27;;;21.70;54.20;;;;;;6278238;22;20181;-97
2022/09/02 08:06:32;;;;;;;10.20;6.77;;;21.80;54.00;;;;;;6272963;22;20166;-96
2022/09/02 08:09:02;;;;;;;12.93;7.30;;;21.90;54.20;;;;;;6268425;22;20190;-96
2022/09/02 08:11:37;;;;;;;11.93;6.37;;;22.10;54.30;;;;;;6266451;23;20163;-96
2022/09/02 08:14:11;;;;;;;11.97;6.90;;;22.10;54.20;;;;;;6262802;23;20173;-95
2022/09/02 08:16:46;;;;;;;12.93;6.60;;;22.30;54.60;;;;;;6260244;23;20171;-96
2022/09/02 08:19:23;;;;;;;10.83;6.63;;;22.40;54.30;;;;;;6257254;23;20485;-96
2022/09/02 08:21:52;;;;;;;7.37;5.93;;;22.50;54.10;;;;;;6258723;23;20171;-96
2022/09/02 08:24:23;;;;;;;12.57;5.60;;;22.60;54.10;;;;;;6270209;23;20195;-95
2022/09/02 08:26:50;;;;;;;11.83;6.97;;;22.70;53.90;;;;;;6268497;23;20227;-96
2022/09/02 08:29:18;;;;;;;8.97;5.80;;;22.80;53.90;;;;;;6257485;23;20186;-96
2022/09/02 08:34:41;;;;;;;10.23;5.70;;;23.10;53.90;;;;;;6217146;23;20187;-96
2022/09/02 08:37:12;;;;;;;8.47;5.47;;;23.20;53.80;;;;;;6250675;23;20252;-95
2022/09/02 08:39:56;;;;;;;7.57;5.90;;;23.40;54.00;;;;;;6250659;23;20266;-96
2022/09/02 08:42:36;;;;;;;7.80;5.40;;;23.50;54.00;;;;;;6257867;23;20167;-95
2022/09/02 08:45:08;;;;;;;9.97;6.13;;;23.70;54.10;;;;;;6261109;23;20194;-96
2022/09/02 08:50:22;;;;;;;9.73;6.20;;;24.00;54.10;;;;;;6256148;23;20179;-96
2022/09/02 08:53:01;;;;;;;8.33;5.40;;;24.20;54.10;;;;;;6248467;23;20180;-96
2022/09/02 08:55:35;;;;;;;8.80;5.73;;;24.40;54.10;;;;;;6248960;23;20513;-96
2022/09/02 08:58:09;;;;;;;5.83;4.60;;;24.70;54.10;;;;;;6249154;23;20175;-96
2022/09/02 09:00:42;;;;;;;7.73;5.33;;;24.90;54.10;;;;;;6254987;23;20179;-96
2022/09/02 09:03:23;;;;;;;7.30;5.10;;;25.20;54.00;;;;;;6262426;22;20187;-94
2022/09/02 09:05:59;;;;;;;7.00;5.03;;;25.50;53.40;;;;;;6268300;22;20167;-96
2022/09/02 09:08:44;;;;;;;10.57;6.63;;;25.90;53.30;;;;;;6267987;22;20175;-95
2022/09/02 09:11:19;;;;;;;7.83;5.00;;;26.20;53.10;;;;;;6265983;22;20711;-96
2022/09/02 09:14:10;;;;;;;8.90;6.10;;;26.50;52.60;;;;;;6259686;22;20214;-95
2022/09/02 09:16:44;;;;;;;7.93;4.97;;;26.90;52.40;;;;;;6261018;22;20203;-96
2022/09/02 09:19:27;;;;;;;6.90;4.67;;;27.20;52.00;;;;;;6250938;23;20163;-96
2022/09/02 09:22:04;;;;;;;6.97;4.93;;;27.50;51.70;;;;;;6249847;23;20164;-96
2022/09/02 09:24:41;;;;;;;6.60;4.87;;;27.80;51.30;;;;;;6250952;23;20195;-96
2022/09/02 09:27:14;;;;;;;6.07;4.67;;;28.10;51.00;;;;;;6250679;23;20179;-96
2022/09/02 09:29:42;;;;;;;5.17;4.23;;;28.40;50.60;;;;;;6248375;23;20171;-96
2022/09/02 09:32:21;;;;;;;9.83;4.67;;;28.70;50.50;;;;;;6248599;23;20168;-95
2022/09/02 09:38:14;;;;;;;6.70;4.07;;;29.30;48.90;;;;;;6181253;23;20183;-96
2022/09/02 09:47:47;;;;;;;7.57;4.82;;;30.10;48.20;;;;;;5442273;22;20721;-96
2022/09/02 09:50:32;;;;;;;7.47;4.10;;;30.30;48.00;;;;;;5073109;28;20207;-96
2022/09/02 09:53:15;;;;;;;5.53;4.30;;;30.50;47.30;;;;;;5071355;28;20269;-96
2022/09/02 09:55:55;;;;;;;6.95;4.10;;;30.80;47.20;;;;;;5078177;22;20234;-96
2022/09/02 09:58:30;;;;;;;6.85;4.55;;;30.90;46.80;;;;;;5053679;28;20195;-96
2022/09/02 10:00:59;;;;;;;7.22;4.35;;;31.10;46.70;;;;;;5060334;28;20750;-96
2022/09/02 10:03:29;;;;;;;8.02;5.15;;;31.30;47.00;;;;;;5068781;28;20223;-96
2022/09/02 10:06:00;;;;;;;8.07;4.78;;;31.50;46.50;;;;;;5075035;28;20549;-96
2022/09/02 10:08:30;;;;;;;7.85;4.47;;;31.70;46.50;;;;;;5072785;28;20191;-96
2022/09/02 10:11:00;;;;;;;5.03;3.80;;;31.80;46.10;;;;;;5070778;28;20211;-96
2022/09/02 10:13:30;;;;;;;10.82;5.85;;;32.00;45.70;;;;;;5071020;28;20238;-96
2022/09/02 10:19:33;;;;;;;8.30;3.78;;;32.30;44.70;;;;;;5070436;28;20206;-95
2022/09/02 10:22:27;;;;;;;4.78;3.15;;;32.40;44.60;;;;;;5074493;28;20961;-96
2022/09/02 10:25:08;;;;;;;5.63;4.00;;;32.40;44.10;;;;;;5071849;28;20210;-96
2022/09/02 10:30:44;;;;;;;6.43;4.00;;;32.60;44.00;;;;;;5079746;22;20234;-95
2022/09/02 10:33:41;;;;;;;4.25;3.25;;;32.70;43.80;;;;;;5070595;28;20879;-96
2022/09/02 10:36:27;;;;;;;6.05;3.60;;;32.70;43.30;;;;;;5071001;28;20195;-96
2022/09/02 10:39:02;;;;;;;4.53;3.03;;;32.90;43.20;;;;;;5069766;28;20269;-95
2022/09/02 10:41:45;;;;;;;5.82;3.63;;;32.90;43.50;;;;;;5069864;28;20207;-95
2022/09/02 10:44:30;;;;;;;5.55;4.00;;;33.00;43.20;;;;;;5071476;28;20199;-92
2022/09/02 10:47:01;;;;;;;5.93;3.67;;;33.10;42.90;;;;;;5077546;28;20211;-95
2022/09/02 10:49:56;;;;;;;5.43;3.85;;;33.20;42.90;;;;;;5076835;28;20192;-96
2022/09/02 10:52:39;;;;;;;6.38;3.75;;;33.20;42.40;;;;;;5066121;28;20230;-94
2022/09/02 10:55:23;;;;;;;6.30;3.95;;;33.40;42.40;;;;;;5057580;28;20208;-96
2022/09/02 10:57:58;;;;;;;7.78;4.90;;;33.50;42.10;;;;;;5055148;28;20206;-96
2022/09/02 11:00:28;;;;;;;6.82;3.70;;;33.60;42.40;;;;;;5036265;28;20263;-95
2022/09/02 11:03:14;;;;;;;5.88;3.92;;;33.70;42.10;;;;;;5035996;28;20275;-95
2022/09/02 11:05:48;;;;;;;4.32;3.35;;;33.90;42.00;;;;;;5035579;28;20669;-96
2022/09/02 11:08:24;;;;;;;5.20;3.63;;;33.90;41.30;;;;;;5041483;28;20206;-95
2022/09/02 11:11:07;;;;;;;3.83;3.40;;;34.00;41.00;;;;;;5056018;28;20202;-95
2022/09/02 11:13:45;;;;;;;7.35;4.03;;;34.10;40.60;;;;;;5048434;28;20899;-94
2022/09/02 11:16:21;;;;;;;6.10;3.17;;;34.20;40.70;;;;;;5052308;28;20211;-94
2022/09/02 11:18:56;;;;;;;5.57;3.85;;;34.30;40.50;;;;;;5054153;28;20207;-94
2022/09/02 11:21:35;;;;;;;5.78;3.65;;;34.40;40.60;;;;;;5053560;28;20739;-96
2022/09/02 11:24:14;;;;;;;2.80;2.60;;;34.50;40.10;;;;;;5054460;28;20231;-93
2022/09/02 11:27:01;;;;;;;3.78;3.15;;;34.60;40.10;;;;;;5053699;28;20211;-94
2022/09/02 11:29:46;;;;;;;7.45;4.47;;;34.60;39.60;;;;;;5053014;28;20207;-94
2022/09/02 11:32:18;;;;;;;3.67;2.85;;;34.70;39.80;;;;;;5054890;28;20208;-93
2022/09/02 11:34:58;;;;;;;6.32;3.90;;;34.80;39.80;;;;;;5053132;28;20645;-95
2022/09/02 11:37:31;;;;;;;3.35;2.75;;;34.90;39.50;;;;;;5053745;28;20206;-93
2022/09/02 11:40:27;;;;;;;5.47;3.65;;;34.90;39.10;;;;;;5054379;28;20251;-95
2022/09/02 11:43:21;;;;;;;6.32;4.43;;;35.10;38.50;;;;;;5055239;28;20224;-96
2022/09/02 11:46:12;;;;;;;6.50;4.03;;;35.20;38.10;;;;;;5053303;28;20208;-93
2022/09/02 11:49:08;;;;;;;7.50;3.80;;;35.30;38.70;;;;;;5052664;28;20211;-93
2022/09/02 11:52:04;;;;;;;8.00;3.28;;;35.40;38.30;;;;;;5055460;28;20250;-93
2022/09/02 11:54:38;;;;;;;3.85;3.13;;;35.50;38.30;;;;;;5050298;28;20208;-94
2022/09/02 12:00:28;;;;;;;4.38;3.42;;;35.60;36.60;;;;;;5054502;28;20243;-94
2022/09/02 12:03:19;;;;;;;5.22;3.53;;;35.60;36.20;;;;;;5051473;28;20224;-94
2022/09/02 12:06:06;;;;;;;7.15;3.55;;;35.60;35.90;;;;;;5041557;28;20204;-94
2022/09/02 12:09:10;;;;;;;6.05;3.67;;;35.60;35.90;;;;;;5052907;28;20610;-93
2022/09/02 12:12:02;;;;;;;5.05;3.70;;;35.60;35.90;;;;;;5053081;28;20199;-95
2022/09/02 12:15:18;;;;;;;4.65;3.47;;;35.50;36.50;;;;;;5053712;28;20203;-95
2022/09/02 12:18:07;;;;;;;6.88;4.03;;;35.50;36.90;;;;;;5039925;28;20215;-95
2022/09/02 12:21:09;;;;;;;3.90;2.97;;;35.40;36.80;;;;;;5040281;28;20199;-94
2022/09/02 12:24:20;;;;;;;3.70;3.10;;;35.40;36.30;;;;;;5038920;28;20263;-95
2022/09/02 12:27:22;;;;;;;5.22;3.72;;;35.40;36.50;;;;;;5052092;28;20207;-96
2022/09/02 12:29:50;;;;;;;5.07;3.33;;;35.30;35.90;;;;;;5049215;28;20730;-96
2022/09/02 12:33:20;;;;;;;3.58;2.78;;;35.30;36.40;;;;;;5055037;28;20191;-95
2022/09/02 12:35:57;;;;;;;6.20;2.92;;;35.30;36.30;;;;;;5033692;28;20211;-96
2022/09/02 12:38:35;;;;;;;13.70;4.10;;;35.40;36.00;;;;;;5037291;28;20197;-96
2022/09/02 12:41:39;;;;;;;5.00;3.50;;;35.30;35.70;;;;;;5031962;28;20254;-95
2022/09/02 12:44:29;;;;;;;6.20;3.10;;;35.30;36.00;;;;;;5034604;28;20243;-94
2022/09/02 12:47:05;;;;;;;5.63;3.30;;;35.20;36.10;;;;;;5037166;28;20211;-95
2022/09/02 12:49:43;;;;;;;2.85;2.55;;;35.20;35.70;;;;;;5052744;28;20203;-95
2022/09/02 12:53:07;;;;;;;6.68;3.63;;;35.10;36.20;;;;;;5051537;28;20295;-94
2022/09/02 12:55:37;;;;;;;5.53;3.90;;;35.10;35.70;;;;;;5054610;28;20304;-95
2022/09/02 12:58:09;;;;;;;7.25;3.72;;;35.00;36.60;;;;;;5049948;28;20252;-95
2022/09/02 13:01:00;;;;;;;8.05;5.45;;;35.00;36.10;;;;;;5054006;28;20250;-96
2022/09/02 13:03:44;;;;;;;5.82;3.22;;;35.00;36.30;;;;;;5052351;28;20234;-95
2022/09/02 13:06:18;;;;;;;6.50;3.60;;;35.00;36.70;;;;;;5060946;28;20240;-95
2022/09/02 13:09:19;;;;;;;4.43;3.28;;;35.00;36.60;;;;;;5068399;28;20207;-94
2022/09/02 13:12:28;;;;;;;4.30;3.38;;;34.90;36.40;;;;;;5069766;28;20223;-96
2022/09/02 13:15:22;;;;;;;3.38;2.85;;;35.00;36.00;;;;;;5064451;28;20224;-95
2022/09/02 13:18:23;;;;;;;1.90;1.80;;;35.00;36.20;;;;;;5062419;28;20618;-95
2022/09/02 13:21:06;;;;;;;6.55;2.75;;;35.00;36.00;;;;;;5019644;28;20197;-93
2022/09/02 13:24:02;;;;;;;3.95;3.30;;;35.00;36.00;;;;;;5045031;28;20240;-94
2022/09/02 13:26:58;;;;;;;2.42;2.03;;;35.00;36.60;;;;;;5031140;28;20208;-95
2022/09/02 13:30:08;;;;;;;6.03;3.85;;;35.00;36.10;;;;;;5049424;28;20663;-94
2022/09/02 13:32:55;;;;;;;4.75;3.15;;;35.00;36.20;;;;;;5062700;28;20647;-95
2022/09/02 13:35:27;;;;;;;6.15;3.47;;;35.00;35.60;;;;;;5054446;28;20196;-96
2022/09/02 13:37:59;;;;;;;5.47;3.05;;;35.00;35.00;;;;;;5053241;28;20249;-94
2022/09/02 13:40:29;;;;;;;3.22;2.85;;;35.10;35.30;;;;;;5056899;28;20204;-96
2022/09/02 13:43:03;;;;;;;4.78;3.35;;;35.10;35.00;;;;;;5068227;28;20227;-94
2022/09/02 13:45:32;;;;;;;5.53;3.83;;;35.20;34.70;;;;;;5062418;28;20196;-94
2022/09/02 13:48:02;;;;;;;4.60;3.30;;;35.20;34.60;;;;;;5048541;28;20256;-94
2022/09/02 13:50:31;;;;;;;5.95;3.63;;;35.10;34.20;;;;;;5054111;28;20207;-96
2022/09/02 13:53:02;;;;;;;7.75;4.38;;;35.10;34.40;;;;;;5057390;28;20234;-95
2022/09/02 13:55:32;;;;;;;10.70;4.57;;;35.10;35.00;;;;;;5051186;28;20207;-96
2022/09/02 13:58:04;;;;;;;5.63;3.35;;;35.10;35.30;;;;;;5056696;28;20291;-96
2022/09/02 14:00:37;;;;;;;5.47;3.75;;;35.10;35.20;;;;;;5056283;28;20263;-96
2022/09/02 14:03:08;;;;;;;5.30;3.35;;;35.10;35.30;;;;;;5056782;28;20232;-95
2022/09/02 14:05:40;;;;;;;6.90;3.78;;;35.20;35.10;;;;;;5054207;28;20208;-94
2022/09/02 14:08:11;;;;;;;4.90;3.42;;;35.20;34.80;;;;;;5054323;28;20211;-96
2022/09/02 14:10:42;;;;;;;3.92;2.80;;;35.20;35.10;;;;;;5057363;28;20200;-96
2022/09/02 14:13:12;;;;;;;10.50;4.35;;;35.30;34.40;;;;;;5056648;28;20196;-95
2022/09/02 14:15:40;;;;;;;6.57;3.30;;;35.30;34.60;;;;;;5062900;28;20227;-96
2022/09/02 14:18:11;;;;;;;4.30;3.00;;;35.40;34.30;;;;;;5054647;28;20204;-96
2022/09/02 14:20:59;;;;;;;5.38;3.28;;;35.30;34.60;;;;;;5061124;28;20220;-96
2022/09/02 14:23:38;;;;;;;4.75;3.40;;;35.30;34.20;;;;;;5057059;28;20216;-96
2022/09/02 14:26:32;;;;;;;3.53;3.03;;;35.30;34.80;;;;;;5059345;28;20295;-96
2022/09/02 14:29:00;;;;;;;4.82;3.30;;;35.30;34.10;;;;;;5062676;28;20750;-96
2022/09/02 14:32:02;;;;;;;4.18;3.05;;;35.20;34.00;;;;;;5071102;28;20242;-96
2022/09/02 14:34:39;;;;;;;5.05;3.25;;;35.10;33.40;;;;;;5066161;28;20225;-96
2022/09/02 14:37:22;;;;;;;5.57;3.58;;;35.00;33.10;;;;;;5064894;28;20204;-96
2022/09/02 14:40:08;;;;;;;9.80;4.72;;;34.80;33.70;;;;;;5067595;28;20200;-93
2022/09/02 14:42:44;;;;;;;5.75;3.33;;;34.70;33.90;;;;;;5054518;28;20208;-94
2022/09/02 14:45:13;;;;;;;7.32;3.83;;;34.60;34.20;;;;;;5056644;28;20232;-93
2022/09/02 14:47:41;;;;;;;5.93;3.88;;;34.50;35.30;;;;;;5058496;28;20228;-93
2022/09/02 14:50:16;;;;;;;7.05;4.07;;;34.40;34.60;;;;;;5057529;28;20235;-94
2022/09/02 14:52:59;;;;;;;4.90;3.33;;;34.30;34.20;;;;;;5048880;28;20204;-94
2022/09/02 14:55:51;;;;;;;6.13;3.67;;;34.20;33.90;;;;;;5054634;28;20212;-95
2022/09/02 14:58:27;;;;;;;11.25;5.82;;;34.10;34.60;;;;;;5056108;28;20220;-94
2022/09/02 15:00:57;;;;;;;7.38;3.92;;;33.90;34.30;;;;;;5058848;28;20230;-93
2022/09/02 15:03:25;;;;;;;7.93;4.72;;;33.80;34.40;;;;;;5055217;28;20234;-93
2022/09/02 15:05:52;;;;;;;8.13;4.53;;;33.70;34.70;;;;;;5056247;28;20207;-94
2022/09/02 15:08:20;;;;;;;3.95;3.22;;;33.70;35.00;;;;;;5062351;28;20742;-93
2022/09/02 15:10:48;;;;;;;6.90;3.53;;;33.60;35.00;;;;;;5075069;28;20200;-92
2022/09/02 15:13:26;;;;;;;9.65;4.40;;;33.50;35.20;;;;;;5052777;28;20311;-93
2022/09/02 15:15:55;;;;;;;9.10;5.13;;;33.50;35.10;;;;;;5056146;28;20218;-92
2022/09/02 15:18:22;;;;;;;5.50;3.70;;;33.40;35.30;;;;;;5053851;28;20200;-92
2022/09/02 15:20:51;;;;;;;8.63;4.97;;;33.40;35.60;;;;;;5045266;28;20208;-92